Time,TemperatureF,DewpointF,PressureIn,WindDirection,WindDirectionDegrees,WindSpeedMPH,WindSpeedGustMPH,Humidity,HourlyPrecipIn,Conditions,Clouds,dailyrainin,SoftwareType,DateUTC
2013-11-07 00:01:00,48.2,45.1,30.27,North,5,15.0,20.0,89,0.00,,,0.00,WeatherCatV1.23B16,2013-11-07 06:01:00,
2013-11-07 00:06:00,48.1,44.7,30.28,North,355,14.0,19.0,88,0.00,,,0.00,WeatherCatV1.23B16,2013-11-07 06:06:00,
2013-11-07 00:11:00,48.1,44.7,30.27,North,355,15.0,21.0,88,0.00,,,0.00,WeatherCatV1.23B16,2013-11-07 06:11:00,
2013-11-07 00:16:00,48.1,44.7,30.28,North,0,14.0,15.0,88,0.00,,,0.00,WeatherCatV1.23B16,2013-11-07 06:16:00,
2013-11-07 00:21:00,48.0,44.3,30.28,NNW,344,14.0,20.0,87,0.00,,,0.00,WeatherCatV1.23B16,2013-11-07 06:21:00,
2013-11-07 00:26:00,47.9,44.2,30.28,NNE,12,12.0,22.0,87,0.00,,,0.00,WeatherCatV1.23B16,2013-11-07 06:26:00,
2013-11-07 00:31:00,47.9,44.5,30.28,North,11,16.0,20.0,88,0.00,,,0.00,WeatherCatV1.23B16,2013-11-07 06:31:00,
2013-11-07 00:36:00,47.8,44.7,30.28,NNW,340,18.0,18.0,89,0.00,,,0.00,WeatherCatV1.23B16,2013-11-07 06:36:00,
2013-11-07 00:41:00,47.8,44.7,30.28,NNW,347,14.0,14.0,89,0.00,,,0.00,WeatherCatV1.23B16,2013-11-07 06:41:00,
2013-11-07 00:46:00,47.7,44.3,30.28,North,5,15.0,17.0,88,0.00,,,0.00,WeatherCatV1.23B16,2013-11-07 06:46:00,
2013-11-07 00:51:00,47.7,44.3,30.29,North,355,14.0,15.0,88,0.00,,,0.00,WeatherCatV1.23B16,2013-11-07 06:51:00,
2013-11-07 00:56:00,47.6,44.2,30.29,NNW,342,14.0,18.0,88,0.00,,,0.00,WeatherCatV1.23B16,2013-11-07 06:56:00,
2013-11-07 01:01:00,47.5,43.5,30.29,North,350,13.0,19.0,86,0.00,,,0.01,WeatherCatV1.23B16,2013-11-07 07:01:00,
2013-11-07 01:06:00,47.4,43.4,30.29,NNW,343,10.0,16.0,86,0.00,,,0.01,WeatherCatV1.23B16,2013-11-07 07:06:00,
2013-11-07 01:11:00,47.3,43.6,30.29,North,0,7.0,15.0,87,0.00,,,0.01,WeatherCatV1.23B16,2013-11-07 07:11:00,
2013-11-07 01:16:00,47.2,43.5,30.29,North,355,12.0,18.0,87,0.00,,,0.01,WeatherCatV1.23B16,2013-11-07 07:16:00,
2013-11-07 01:21:00,47.1,43.1,30.30,NNW,348,10.0,15.0,86,0.00,,,0.01,WeatherCatV1.23B16,2013-11-07 07:21:00,
2013-11-07 01:26:00,47.1,43.1,30.29,North,0,11.0,19.0,86,0.00,,,0.01,WeatherCatV1.23B16,2013-11-07 07:26:00,
2013-11-07 01:31:00,47.1,43.1,30.29,North,355,13.0,20.0,86,0.00,,,0.01,WeatherCatV1.23B16,2013-11-07 07:31:00,
2013-11-07 01:36:00,47.0,43.0,30.29,NNE,15,13.0,15.0,86,0.00,,,0.01,WeatherCatV1.23B16,2013-11-07 07:36:00,
2013-11-07 01:41:00,47.0,42.7,30.29,NNE,13,18.0,19.0,85,0.00,,,0.01,WeatherCatV1.23B16,2013-11-07 07:41:00,
2013-11-07 01:46:00,46.9,42.6,30.29,North,351,15.0,19.0,85,0.00,,,0.01,WeatherCatV1.23B16,2013-11-07 07:46:00,
2013-11-07 01:51:00,46.8,42.5,30.29,NNW,344,13.0,16.0,85,0.00,,,0.01,WeatherCatV1.23B16,2013-11-07 07:51:00,
2013-11-07 01:56:00,46.7,42.7,30.29,NNE,17,11.0,16.0,86,0.00,,,0.01,WeatherCatV1.23B16,2013-11-07 07:56:00,
2013-11-07 02:01:00,46.7,42.7,30.29,North,10,10.0,15.0,86,0.00,,,0.01,WeatherCatV1.23B16,2013-11-07 08:01:00,
2013-11-07 02:06:00,46.7,42.4,30.29,North,5,14.0,16.0,85,0.00,,,0.01,WeatherCatV1.23B16,2013-11-07 08:06:00,
2013-11-07 02:11:00,46.6,42.3,30.30,NNW,347,11.0,19.0,85,0.00,,,0.01,WeatherCatV1.23B16,2013-11-07 08:11:00,
2013-11-07 02:16:00,46.6,42.0,30.30,North,5,14.0,19.0,84,0.00,,,0.01,WeatherCatV1.23B16,2013-11-07 08:16:00,
2013-11-07 02:21:00,46.5,41.9,30.29,North,0,13.0,20.0,84,0.00,,,0.01,WeatherCatV1.23B16,2013-11-07 08:21:00,
2013-11-07 02:26:00,46.5,42.2,30.29,North,349,12.0,18.0,85,0.00,,,0.01,WeatherCatV1.23B16,2013-11-07 08:26:00,
2013-11-07 02:31:00,46.5,42.2,30.30,NNW,340,12.0,17.0,85,0.00,,,0.01,WeatherCatV1.23B16,2013-11-07 08:31:00,
2013-11-07 02:36:00,46.5,41.9,30.30,North,5,12.0,16.0,84,0.00,,,0.01,WeatherCatV1.23B16,2013-11-07 08:36:00,
2013-11-07 02:41:00,46.5,41.9,30.30,North,355,12.0,15.0,84,0.00,,,0.01,WeatherCatV1.23B16,2013-11-07 08:41:00,
2013-11-07 02:46:00,46.4,41.8,30.29,NNW,346,11.0,13.0,84,0.00,,,0.01,WeatherCatV1.23B16,2013-11-07 08:46:00,
2013-11-07 02:51:00,46.4,41.8,30.30,North,10,11.0,15.0,84,0.00,,,0.01,WeatherCatV1.23B16,2013-11-07 08:51:00,
2013-11-07 02:56:00,46.4,42.1,30.30,NNE,22,8.0,10.0,85,0.00,,,0.01,WeatherCatV1.23B16,2013-11-07 08:56:00,
2013-11-07 03:01:00,46.4,42.1,30.30,North,9,10.0,12.0,85,0.00,,,0.01,WeatherCatV1.23B16,2013-11-07 09:01:00,
2013-11-07 03:06:00,46.4,42.1,30.30,North,0,11.0,13.0,85,0.00,,,0.01,WeatherCatV1.23B16,2013-11-07 09:06:00,
2013-11-07 03:11:00,46.4,42.1,30.30,NNE,15,11.0,13.0,85,0.00,,,0.01,WeatherCatV1.23B16,2013-11-07 09:11:00,
2013-11-07 03:16:00,46.3,42.0,30.30,North,5,11.0,11.0,85,0.00,,,0.01,WeatherCatV1.23B16,2013-11-07 09:16:00,
2013-11-07 03:21:00,46.3,41.7,30.31,NNE,16,10.0,15.0,84,0.00,,,0.01,WeatherCatV1.23B16,2013-11-07 09:21:00,
2013-11-07 03:26:00,46.2,41.6,30.31,NNE,19,10.0,15.0,84,0.00,,,0.01,WeatherCatV1.23B16,2013-11-07 09:26:00,
2013-11-07 03:31:00,46.1,41.2,30.31,NNE,20,13.0,18.0,83,0.00,,,0.01,WeatherCatV1.23B16,2013-11-07 09:31:00,
2013-11-07 03:36:00,46.0,41.1,30.31,NNE,24,15.0,18.0,83,0.00,,,0.01,WeatherCatV1.23B16,2013-11-07 09:36:00,
2013-11-07 03:41:00,45.9,41.0,30.31,North,11,12.0,18.0,83,0.00,,,0.01,WeatherCatV1.23B16,2013-11-07 09:41:00,
2013-11-07 03:46:00,45.8,40.0,30.32,North,5,15.0,19.0,80,0.00,,,0.01,WeatherCatV1.23B16,2013-11-07 09:46:00,
2013-11-07 03:51:00,45.7,40.2,30.32,North,5,17.0,21.0,81,0.00,,,0.01,WeatherCatV1.23B16,2013-11-07 09:51:00,
2013-11-07 03:56:00,45.7,40.5,30.33,North,355,14.0,20.0,82,0.00,,,0.01,WeatherCatV1.23B16,2013-11-07 09:56:00,
2013-11-07 04:01:00,45.6,40.4,30.33,NNW,341,12.0,12.0,82,0.00,,,0.01,WeatherCatV1.23B16,2013-11-07 10:01:00,
2013-11-07 04:06:00,45.5,40.6,30.33,North,5,11.0,16.0,83,0.00,,,0.01,WeatherCatV1.23B16,2013-11-07 10:06:00,
2013-11-07 04:11:00,45.5,40.0,30.33,North,9,13.0,15.0,81,0.00,,,0.01,WeatherCatV1.23B16,2013-11-07 10:11:00,
2013-11-07 04:16:00,45.5,40.3,30.33,NNE,19,10.0,12.0,82,0.00,,,0.01,WeatherCatV1.23B16,2013-11-07 10:16:00,
2013-11-07 04:21:00,45.5,40.3,30.34,North,355,11.0,12.0,82,0.00,,,0.01,WeatherCatV1.23B16,2013-11-07 10:21:00,
2013-11-07 04:26:00,45.6,40.4,30.34,NNE,17,13.0,14.0,82,0.00,,,0.01,WeatherCatV1.23B16,2013-11-07 10:26:00,
2013-11-07 04:31:00,45.8,40.6,30.34,North,0,12.0,13.0,82,0.00,,,0.01,WeatherCatV1.23B16,2013-11-07 10:31:00,
2013-11-07 04:36:00,45.7,40.5,30.35,North,9,13.0,15.0,82,0.00,,,0.01,WeatherCatV1.23B16,2013-11-07 10:36:00,
2013-11-07 04:41:00,45.8,40.6,30.35,NNW,340,11.0,15.0,82,0.00,,,0.01,WeatherCatV1.23B16,2013-11-07 10:41:00,
2013-11-07 04:46:00,45.6,40.7,30.35,North,0,9.0,13.0,83,0.00,,,0.01,WeatherCatV1.23B16,2013-11-07 10:46:00,
2013-11-07 04:51:00,45.4,40.2,30.36,NNE,12,6.0,14.0,82,0.00,,,0.01,WeatherCatV1.23B16,2013-11-07 10:51:00,
2013-11-07 04:56:00,45.1,40.2,30.36,North,11,8.0,12.0,83,0.00,,,0.01,WeatherCatV1.23B16,2013-11-07 10:56:00,
2013-11-07 05:01:00,44.8,40.0,30.36,North,0,6.0,11.0,83,0.00,,,0.01,WeatherCatV1.23B16,2013-11-07 11:01:00,
2013-11-07 05:06:00,44.6,39.8,30.36,North,355,10.0,11.0,83,0.00,,,0.01,WeatherCatV1.23B16,2013-11-07 11:06:00,
2013-11-07 05:11:00,44.4,39.9,30.36,North,350,8.0,10.0,84,0.00,,,0.01,WeatherCatV1.23B16,2013-11-07 11:11:00,
2013-11-07 05:16:00,44.2,40.3,30.36,NNW,345,9.0,11.0,86,0.00,,,0.01,WeatherCatV1.23B16,2013-11-07 11:16:00,
2013-11-07 05:21:00,44.0,39.8,30.37,NNW,346,10.0,13.0,85,0.00,,,0.01,WeatherCatV1.23B16,2013-11-07 11:21:00,
2013-11-07 05:26:00,43.8,39.9,30.37,North,5,9.0,10.0,86,0.00,,,0.01,WeatherCatV1.23B16,2013-11-07 11:26:00,
2013-11-07 05:31:00,43.7,39.8,30.37,NNW,347,10.0,11.0,86,0.00,,,0.01,WeatherCatV1.23B16,2013-11-07 11:31:00,
2013-11-07 05:34:00,43.6,39.7,30.37,North,0,7.0,12.0,86,0.00,,,0.01,WeatherCatV1.23B16,2013-11-07 11:34:00,
2013-11-07 05:39:00,43.4,39.8,30.38,North,355,9.0,11.0,87,0.00,,,0.01,WeatherCatV1.23B16,2013-11-07 11:39:00,
2013-11-07 05:44:00,43.3,39.7,30.38,North,350,7.0,7.0,87,0.00,,,0.01,WeatherCatV1.23B16,2013-11-07 11:44:00,
2013-11-07 05:49:00,43.2,39.6,30.38,North,355,6.0,8.0,87,0.00,,,0.01,WeatherCatV1.23B16,2013-11-07 11:49:00,
2013-11-07 05:54:00,43.0,39.4,30.38,NNW,348,9.0,9.0,87,0.00,,,0.01,WeatherCatV1.23B16,2013-11-07 11:54:00,
2013-11-07 05:59:00,42.9,39.3,30.38,North,350,7.0,10.0,87,0.00,,,0.01,WeatherCatV1.23B16,2013-11-07 11:59:00,
2013-11-07 06:04:00,42.8,39.2,30.39,North,355,7.0,9.0,87,0.00,,,0.01,WeatherCatV1.23B16,2013-11-07 12:04:00,
2013-11-07 06:09:00,42.7,39.1,30.39,NNW,340,7.0,10.0,87,0.00,,,0.01,WeatherCatV1.23B16,2013-11-07 12:09:00,
2013-11-07 06:14:00,42.5,38.9,30.39,NNW,347,7.0,9.0,87,0.00,,,0.01,WeatherCatV1.23B16,2013-11-07 12:14:00,
2013-11-07 06:19:00,42.4,38.8,30.39,NNW,327,7.0,9.0,87,0.00,,,0.01,WeatherCatV1.23B16,2013-11-07 12:19:00,
2013-11-07 06:24:00,42.3,39.0,30.39,North,0,9.0,11.0,88,0.00,,,0.01,WeatherCatV1.23B16,2013-11-07 12:24:00,
2013-11-07 06:29:00,42.3,39.0,30.39,North,355,8.0,10.0,88,0.00,,,0.01,WeatherCatV1.23B16,2013-11-07 12:29:00,
2013-11-07 06:34:00,42.2,38.9,30.39,North,355,9.0,11.0,88,0.00,,,0.01,WeatherCatV1.23B16,2013-11-07 12:34:00,
2013-11-07 06:39:00,42.2,38.9,30.40,NNW,346,6.0,10.0,88,0.00,,,0.01,WeatherCatV1.23B16,2013-11-07 12:39:00,
2013-11-07 06:44:00,42.2,38.9,30.40,North,355,8.0,8.0,88,0.00,,,0.01,WeatherCatV1.23B16,2013-11-07 12:44:00,
2013-11-07 06:49:00,42.2,38.9,30.40,North,355,6.0,8.0,88,0.00,,,0.01,WeatherCatV1.23B16,2013-11-07 12:49:00,
2013-11-07 06:54:00,42.2,38.9,30.40,North,355,8.0,10.0,88,0.00,,,0.01,WeatherCatV1.23B16,2013-11-07 12:54:00,
2013-11-07 06:59:00,42.3,39.0,30.40,NNW,348,8.0,10.0,88,0.00,,,0.01,WeatherCatV1.23B16,2013-11-07 12:59:00,
2013-11-07 07:04:00,42.4,39.1,30.40,North,355,8.0,12.0,88,0.00,,,0.01,WeatherCatV1.23B16,2013-11-07 13:04:00,
2013-11-07 07:09:00,42.5,39.2,30.40,North,355,9.0,11.0,88,0.00,,,0.01,WeatherCatV1.23B16,2013-11-07 13:09:00,
2013-11-07 07:14:00,42.6,39.0,30.41,NNW,343,10.0,13.0,87,0.00,,,0.01,WeatherCatV1.23B16,2013-11-07 13:14:00,
2013-11-07 07:19:00,42.8,39.5,30.41,NNW,342,7.0,12.0,88,0.00,,,0.01,WeatherCatV1.23B16,2013-11-07 13:19:00,
2013-11-07 07:24:00,42.9,39.3,30.41,North,355,7.0,11.0,87,0.00,,,0.01,WeatherCatV1.23B16,2013-11-07 13:24:00,
2013-11-07 07:29:00,43.1,39.5,30.41,North,355,7.0,11.0,87,0.00,,,0.01,WeatherCatV1.23B16,2013-11-07 13:29:00,
2013-11-07 07:34:00,43.2,39.3,30.42,NNW,348,9.0,13.0,86,0.00,,,0.01,WeatherCatV1.23B16,2013-11-07 13:34:00,
2013-11-07 07:39:00,43.4,39.5,30.42,North,355,7.0,13.0,86,0.00,,,0.01,WeatherCatV1.23B16,2013-11-07 13:39:00,
2013-11-07 07:44:00,43.7,39.8,30.42,North,11,10.0,10.0,86,0.00,,,0.01,WeatherCatV1.23B16,2013-11-07 13:44:00,
2013-11-07 07:49:00,43.8,39.9,30.42,North,0,8.0,12.0,86,0.00,,,0.01,WeatherCatV1.23B16,2013-11-07 13:49:00,
2013-11-07 07:54:00,44.0,40.1,30.42,North,0,6.0,12.0,86,0.00,,,0.01,WeatherCatV1.23B16,2013-11-07 13:54:00,
2013-11-07 07:59:00,44.3,40.4,30.42,NNW,348,8.0,12.0,86,0.00,,,0.01,WeatherCatV1.23B16,2013-11-07 13:59:00,
2013-11-07 08:04:00,44.4,39.9,30.42,North,355,9.0,10.0,84,0.00,,,0.01,WeatherCatV1.23B16,2013-11-07 14:04:00,
2013-11-07 08:09:00,44.6,40.4,30.42,North,355,10.0,11.0,85,0.00,,,0.01,WeatherCatV1.23B16,2013-11-07 14:09:00,
2013-11-07 08:14:00,44.9,40.4,30.42,NNE,19,7.0,14.0,84,0.00,,,0.01,WeatherCatV1.23B16,2013-11-07 14:14:00,
2013-11-07 08:19:00,45.1,40.6,30.42,NNE,30,9.0,14.0,84,0.00,,,0.01,WeatherCatV1.23B16,2013-11-07 14:19:00,
2013-11-07 08:24:00,45.3,41.1,30.42,NNE,24,13.0,13.0,85,0.00,,,0.01,WeatherCatV1.23B16,2013-11-07 14:24:00,
2013-11-07 08:29:00,45.5,41.0,30.42,NNE,14,11.0,13.0,84,0.00,,,0.01,WeatherCatV1.23B16,2013-11-07 14:29:00,
2013-11-07 08:34:00,45.8,40.9,30.42,NNE,28,11.0,14.0,83,0.00,,,0.01,WeatherCatV1.23B16,2013-11-07 14:34:00,
2013-11-07 08:39:00,46.1,41.2,30.42,North,9,13.0,16.0,83,0.00,,,0.01,WeatherCatV1.23B16,2013-11-07 14:39:00,
2013-11-07 08:44:00,46.1,40.9,30.42,NNE,15,8.0,12.0,82,0.00,,,0.01,WeatherCatV1.23B16,2013-11-07 14:44:00,
2013-11-07 08:49:00,46.4,41.2,30.43,NNE,18,8.0,13.0,82,0.00,,,0.01,WeatherCatV1.23B16,2013-11-07 14:49:00,
2013-11-07 08:54:00,46.4,40.9,30.42,NNE,23,8.0,12.0,81,0.00,,,0.01,WeatherCatV1.23B16,2013-11-07 14:54:00,
2013-11-07 08:59:00,46.7,40.9,30.43,North,9,12.0,16.0,80,0.00,,,0.01,WeatherCatV1.23B16,2013-11-07 14:59:00,
2013-11-07 09:04:00,46.9,41.1,30.42,North,5,9.0,14.0,80,0.00,,,0.01,WeatherCatV1.23B16,2013-11-07 15:04:00,
2013-11-07 09:09:00,47.2,40.7,30.42,NNE,30,11.0,15.0,78,0.00,,,0.01,WeatherCatV1.23B16,2013-11-07 15:09:00,
2013-11-07 09:14:00,47.4,41.5,30.42,NNE,26,10.0,10.0,80,0.00,,,0.01,WeatherCatV1.23B16,2013-11-07 15:14:00,
2013-11-07 09:19:00,47.6,41.7,30.43,North,0,9.0,14.0,80,0.00,,,0.01,WeatherCatV1.23B16,2013-11-07 15:19:00,
2013-11-07 09:24:00,47.9,41.4,30.43,NNE,27,10.0,13.0,78,0.00,,,0.01,WeatherCatV1.23B16,2013-11-07 15:24:00,
2013-11-07 09:29:00,48.1,41.9,30.43,North,5,12.0,17.0,79,0.00,,,0.01,WeatherCatV1.23B16,2013-11-07 15:29:00,
2013-11-07 09:34:00,48.2,40.7,30.43,NNE,28,13.0,17.0,75,0.00,,,0.01,WeatherCatV1.23B16,2013-11-07 15:34:00,
2013-11-07 09:39:00,48.5,41.3,30.43,NNE,25,14.0,17.0,76,0.00,,,0.01,WeatherCatV1.23B16,2013-11-07 15:39:00,
2013-11-07 09:44:00,48.7,42.2,30.43,North,9,9.0,16.0,78,0.00,,,0.01,WeatherCatV1.23B16,2013-11-07 15:44:00,
2013-11-07 09:49:00,48.9,41.7,30.43,NNE,18,16.0,16.0,76,0.00,,,0.01,WeatherCatV1.23B16,2013-11-07 15:49:00,
2013-11-07 09:54:00,49.1,41.2,30.43,North,5,11.0,16.0,74,0.00,,,0.01,WeatherCatV1.23B16,2013-11-07 15:54:00,
2013-11-07 09:59:00,49.3,41.0,30.43,NNE,30,13.0,16.0,73,0.00,,,0.01,WeatherCatV1.23B16,2013-11-07 15:59:00,
2013-11-07 10:04:00,49.6,41.3,30.43,North,5,11.0,13.0,73,0.00,,,0.01,WeatherCatV1.23B16,2013-11-07 16:04:00,
2013-11-07 10:09:00,49.5,41.6,30.43,NNE,31,8.0,11.0,74,0.00,,,0.01,WeatherCatV1.23B16,2013-11-07 16:09:00,
2013-11-07 10:14:00,49.9,42.0,30.43,NE,41,13.0,13.0,74,0.00,,,0.01,WeatherCatV1.23B16,2013-11-07 16:14:00,
2013-11-07 10:19:00,50.0,41.7,30.43,NNE,22,12.0,16.0,73,0.00,,,0.01,WeatherCatV1.23B16,2013-11-07 16:19:00,
2013-11-07 10:24:00,50.3,42.3,30.43,North,11,14.0,17.0,74,0.00,,,0.01,WeatherCatV1.23B16,2013-11-07 16:24:00,
2013-11-07 10:29:00,50.6,41.9,30.43,North,5,8.0,16.0,72,0.00,,,0.01,WeatherCatV1.23B16,2013-11-07 16:29:00,
2013-11-07 10:34:00,50.5,42.2,30.43,NNE,17,12.0,14.0,73,0.00,,,0.01,WeatherCatV1.23B16,2013-11-07 16:34:00,
2013-11-07 10:39:00,50.7,42.0,30.43,North,0,9.0,15.0,72,0.00,,,0.01,WeatherCatV1.23B16,2013-11-07 16:39:00,
2013-11-07 10:44:00,50.7,41.6,30.43,NNE,17,13.0,16.0,71,0.00,,,0.01,WeatherCatV1.23B16,2013-11-07 16:44:00,
2013-11-07 10:49:00,50.8,41.7,30.43,NNE,17,12.0,15.0,71,0.00,,,0.01,WeatherCatV1.23B16,2013-11-07 16:49:00,
2013-11-07 10:54:00,50.9,42.2,30.43,NNE,22,13.0,15.0,72,0.00,,,0.01,WeatherCatV1.23B16,2013-11-07 16:54:00,
2013-11-07 10:59:00,50.9,41.8,30.43,North,0,10.0,12.0,71,0.00,,,0.01,WeatherCatV1.23B16,2013-11-07 16:59:00,
2013-11-07 11:04:00,51.2,43.2,30.43,North,5,9.0,14.0,74,0.00,,,0.01,WeatherCatV1.23B16,2013-11-07 17:04:00,
2013-11-07 11:09:00,51.5,41.7,30.43,North,0,10.0,13.0,69,0.00,,,0.01,WeatherCatV1.23B16,2013-11-07 17:09:00,
2013-11-07 11:14:00,51.6,43.2,30.42,North,355,9.0,15.0,73,0.00,,,0.01,WeatherCatV1.23B16,2013-11-07 17:14:00,
2013-11-07 11:19:00,51.8,42.7,30.42,NNE,28,11.0,13.0,71,0.00,,,0.01,WeatherCatV1.23B16,2013-11-07 17:19:00,
2013-11-07 11:24:00,51.8,43.4,30.42,North,351,10.0,14.0,73,0.00,,,0.01,WeatherCatV1.23B16,2013-11-07 17:24:00,
2013-11-07 11:29:00,52.0,43.3,30.42,North,5,11.0,13.0,72,0.00,,,0.01,WeatherCatV1.23B16,2013-11-07 17:29:00,
2013-11-07 11:34:00,52.4,42.9,30.42,NNE,29,9.0,11.0,70,0.00,,,0.01,WeatherCatV1.23B16,2013-11-07 17:34:00,
2013-11-07 11:39:00,52.6,42.7,30.42,NNW,341,11.0,16.0,69,0.00,,,0.01,WeatherCatV1.23B16,2013-11-07 17:39:00,
2013-11-07 11:44:00,52.6,41.6,30.41,NNW,339,14.0,17.0,66,0.00,,,0.01,WeatherCatV1.23B16,2013-11-07 17:44:00,
2013-11-07 11:49:00,52.6,41.6,30.41,North,350,11.0,14.0,66,0.00,,,0.01,WeatherCatV1.23B16,2013-11-07 17:49:00,
2013-11-07 11:54:00,52.6,42.0,30.41,North,355,14.0,16.0,67,0.00,,,0.01,WeatherCatV1.23B16,2013-11-07 17:54:00,
2013-11-07 11:58:00,52.6,42.0,30.41,NNW,344,11.0,13.0,67,0.00,,,0.01,WeatherCatV1.23B16,2013-11-07 17:58:00,
2013-11-07 12:03:00,52.4,42.2,30.41,North,355,10.0,13.0,68,0.00,,,0.01,WeatherCatV1.23B16,2013-11-07 18:03:00,
2013-11-07 12:08:00,52.8,43.3,30.41,NNE,22,15.0,15.0,70,0.00,,,0.01,WeatherCatV1.23B16,2013-11-07 18:08:00,
2013-11-07 12:13:00,52.9,42.6,30.40,NE,53,10.0,13.0,68,0.00,,,0.01,WeatherCatV1.23B16,2013-11-07 18:13:00,
2013-11-07 12:18:00,53.1,42.8,30.40,North,350,11.0,15.0,68,0.00,,,0.01,WeatherCatV1.23B16,2013-11-07 18:18:00,
2013-11-07 12:23:00,53.3,42.2,30.40,NNW,339,8.0,16.0,66,0.00,,,0.01,WeatherCatV1.23B16,2013-11-07 18:23:00,
2013-11-07 12:28:00,53.7,43.8,30.40,North,350,8.0,14.0,69,0.00,,,0.01,WeatherCatV1.23B16,2013-11-07 18:28:00,
2013-11-07 12:33:00,53.7,43.0,30.40,North,355,12.0,15.0,67,0.00,,,0.01,WeatherCatV1.23B16,2013-11-07 18:33:00,
2013-11-07 12:38:00,53.8,42.3,30.40,NNW,346,12.0,15.0,65,0.00,,,0.01,WeatherCatV1.23B16,2013-11-07 18:38:00,
2013-11-07 12:43:00,54.0,42.1,30.39,NNW,327,10.0,14.0,64,0.00,,,0.01,WeatherCatV1.23B16,2013-11-07 18:43:00,
2013-11-07 12:48:00,54.4,42.9,30.39,North,349,11.0,12.0,65,0.00,,,0.01,WeatherCatV1.23B16,2013-11-07 18:48:00,
2013-11-07 12:53:00,54.3,42.0,30.39,NNE,14,13.0,17.0,63,0.00,,,0.01,WeatherCatV1.23B16,2013-11-07 18:53:00,
2013-11-07 12:58:00,54.4,42.1,30.39,NNW,342,8.0,14.0,63,0.00,,,0.01,WeatherCatV1.23B16,2013-11-07 18:58:00,
2013-11-07 13:03:00,54.7,42.8,30.39,NNE,17,10.0,15.0,64,0.00,,,0.01,WeatherCatV1.23B16,2013-11-07 19:03:00,
2013-11-07 13:08:00,54.4,40.8,30.39,North,5,4.0,12.0,60,0.00,,,0.01,WeatherCatV1.23B16,2013-11-07 19:08:00,
2013-11-07 13:13:00,54.9,42.1,30.38,North,355,13.0,13.0,62,0.00,,,0.01,WeatherCatV1.23B16,2013-11-07 19:13:00,
2013-11-07 13:18:00,55.0,41.8,30.38,NNE,16,15.0,18.0,61,0.00,,,0.01,WeatherCatV1.23B16,2013-11-07 19:18:00,
2013-11-07 13:23:00,55.2,43.2,30.38,North,9,12.0,16.0,64,0.00,,,0.01,WeatherCatV1.23B16,2013-11-07 19:23:00,
2013-11-07 13:28:00,55.1,42.7,30.38,NNW,327,8.0,13.0,63,0.00,,,0.01,WeatherCatV1.23B16,2013-11-07 19:28:00,
2013-11-07 13:33:00,55.2,42.0,30.37,NNE,14,8.0,15.0,61,0.00,,,0.01,WeatherCatV1.23B16,2013-11-07 19:33:00,
2013-11-07 13:38:00,55.2,40.7,30.37,NNW,327,12.0,14.0,58,0.00,,,0.01,WeatherCatV1.23B16,2013-11-07 19:38:00,
2013-11-07 13:43:00,55.2,43.2,30.37,NNW,342,11.0,15.0,64,0.00,,,0.01,WeatherCatV1.23B16,2013-11-07 19:43:00,
2013-11-07 13:48:00,55.2,42.4,30.37,NNE,20,5.0,9.0,62,0.00,,,0.01,WeatherCatV1.23B16,2013-11-07 19:48:00,
2013-11-07 13:53:00,55.3,43.3,30.37,NNE,30,11.0,11.0,64,0.00,,,0.01,WeatherCatV1.23B16,2013-11-07 19:53:00,
2013-11-07 13:58:00,55.6,42.8,30.37,North,0,11.0,16.0,62,0.00,,,0.01,WeatherCatV1.23B16,2013-11-07 19:58:00,
2013-11-07 14:03:00,55.5,43.1,30.37,NNE,15,5.0,8.0,63,0.00,,,0.01,WeatherCatV1.23B16,2013-11-07 20:03:00,
2013-11-07 14:08:00,55.7,42.9,30.36,North,0,10.0,12.0,62,0.00,,,0.01,WeatherCatV1.23B16,2013-11-07 20:08:00,
2013-11-07 14:13:00,55.8,43.4,30.37,NNW,327,10.0,12.0,63,0.00,,,0.01,WeatherCatV1.23B16,2013-11-07 20:13:00,
2013-11-07 14:18:00,55.7,41.6,30.37,NNE,26,11.0,11.0,59,0.00,,,0.01,WeatherCatV1.23B16,2013-11-07 20:18:00,
2013-11-07 14:23:00,55.7,43.3,30.36,North,355,12.0,13.0,63,0.00,,,0.01,WeatherCatV1.23B16,2013-11-07 20:23:00,
2013-11-07 14:28:00,55.7,43.3,30.36,North,5,9.0,11.0,63,0.00,,,0.01,WeatherCatV1.23B16,2013-11-07 20:28:00,
2013-11-07 14:33:00,55.5,42.7,30.36,North,355,9.0,12.0,62,0.00,,,0.01,WeatherCatV1.23B16,2013-11-07 20:33:00,
2013-11-07 14:38:00,55.3,42.5,30.36,NNE,32,8.0,11.0,62,0.00,,,0.01,WeatherCatV1.23B16,2013-11-07 20:38:00,
2013-11-07 14:43:00,55.4,41.3,30.36,North,0,8.0,10.0,59,0.00,,,0.01,WeatherCatV1.23B16,2013-11-07 20:43:00,
2013-11-07 14:48:00,55.7,42.5,30.36,NNE,30,12.0,12.0,61,0.00,,,0.01,WeatherCatV1.23B16,2013-11-07 20:48:00,
2013-11-07 14:53:00,55.6,40.6,30.36,NE,44,5.0,8.0,57,0.00,,,0.01,WeatherCatV1.23B16,2013-11-07 20:53:00,
2013-11-07 14:58:00,55.6,42.4,30.36,NNE,26,10.0,12.0,61,0.00,,,0.01,WeatherCatV1.23B16,2013-11-07 20:58:00,
2013-11-07 15:03:00,55.6,42.8,30.36,North,350,5.0,12.0,62,0.00,,,0.01,WeatherCatV1.23B16,2013-11-07 21:03:00,
2013-11-07 15:08:00,55.6,42.4,30.36,North,5,7.0,12.0,61,0.00,,,0.01,WeatherCatV1.23B16,2013-11-07 21:08:00,
2013-11-07 15:13:00,55.5,42.3,30.36,North,0,9.0,9.0,61,0.00,,,0.01,WeatherCatV1.23B16,2013-11-07 21:13:00,
2013-11-07 15:18:00,55.5,43.1,30.36,NNW,337,9.0,12.0,63,0.00,,,0.01,WeatherCatV1.23B16,2013-11-07 21:18:00,
2013-11-07 15:23:00,55.7,44.1,30.35,NNE,12,7.0,10.0,65,0.00,,,0.01,WeatherCatV1.23B16,2013-11-07 21:23:00,
2013-11-07 15:28:00,55.6,41.9,30.35,North,0,9.0,11.0,60,0.00,,,0.01,WeatherCatV1.23B16,2013-11-07 21:28:00,
2013-11-07 15:33:00,55.5,40.1,30.35,North,11,9.0,11.0,56,0.00,,,0.01,WeatherCatV1.23B16,2013-11-07 21:33:00,
2013-11-07 15:38:00,55.5,40.5,30.35,NNE,15,8.0,10.0,57,0.00,,,0.01,WeatherCatV1.23B16,2013-11-07 21:38:00,
2013-11-07 15:43:00,55.6,40.2,30.36,North,0,9.0,12.0,56,0.00,,,0.01,WeatherCatV1.23B16,2013-11-07 21:43:00,
2013-11-07 15:48:00,55.5,39.6,30.36,NNE,15,10.0,13.0,55,0.00,,,0.01,WeatherCatV1.23B16,2013-11-07 21:48:00,
2013-11-07 15:53:00,55.5,41.0,30.36,NNE,18,7.0,10.0,58,0.00,,,0.01,WeatherCatV1.23B16,2013-11-07 21:53:00,
2013-11-07 15:58:00,55.4,39.5,30.36,NNE,13,9.0,12.0,55,0.00,,,0.01,WeatherCatV1.23B16,2013-11-07 21:58:00,
2013-11-07 16:03:00,55.4,40.0,30.36,North,355,9.0,11.0,56,0.00,,,0.01,WeatherCatV1.23B16,2013-11-07 22:03:00,
2013-11-07 16:08:00,55.3,39.9,30.35,North,9,11.0,11.0,56,0.00,,,0.01,WeatherCatV1.23B16,2013-11-07 22:08:00,
2013-11-07 16:13:00,55.3,40.8,30.36,North,355,9.0,10.0,58,0.00,,,0.01,WeatherCatV1.23B16,2013-11-07 22:13:00,
2013-11-07 16:18:00,55.1,40.6,30.36,North,355,6.0,9.0,58,0.00,,,0.01,WeatherCatV1.23B16,2013-11-07 22:18:00,
2013-11-07 16:23:00,55.1,42.3,30.36,North,5,6.0,6.0,62,0.00,,,0.01,WeatherCatV1.23B16,2013-11-07 22:23:00,
2013-11-07 16:28:00,55.0,41.4,30.36,North,5,6.0,8.0,60,0.00,,,0.01,WeatherCatV1.23B16,2013-11-07 22:28:00,
2013-11-07 16:33:00,54.9,41.3,30.36,North,0,6.0,6.0,60,0.00,,,0.01,WeatherCatV1.23B16,2013-11-07 22:33:00,
2013-11-07 16:38:00,54.7,40.7,30.36,North,5,7.0,9.0,59,0.00,,,0.01,WeatherCatV1.23B16,2013-11-07 22:38:00,
2013-11-07 16:43:00,54.5,41.8,30.36,North,355,4.0,5.0,62,0.00,,,0.01,WeatherCatV1.23B16,2013-11-07 22:43:00,
2013-11-07 16:48:00,54.3,42.8,30.37,North,355,4.0,5.0,65,0.00,,,0.01,WeatherCatV1.23B16,2013-11-07 22:48:00,
2013-11-07 16:53:00,54.1,43.0,30.37,North,355,3.0,4.0,66,0.00,,,0.01,WeatherCatV1.23B16,2013-11-07 22:53:00,
2013-11-07 16:58:00,53.7,43.0,30.37,North,355,2.0,3.0,67,0.00,,,0.01,WeatherCatV1.23B16,2013-11-07 22:58:00,
2013-11-07 17:03:00,53.3,43.0,30.36,North,355,2.0,2.0,68,0.00,,,0.01,WeatherCatV1.23B16,2013-11-07 23:03:00,
2013-11-07 17:08:00,53.0,42.7,30.36,North,355,1.0,2.0,68,0.00,,,0.01,WeatherCatV1.23B16,2013-11-07 23:08:00,
2013-11-07 17:13:00,52.8,43.7,30.37,North,355,2.0,2.0,71,0.00,,,0.01,WeatherCatV1.23B16,2013-11-07 23:13:00,
2013-11-07 17:18:00,52.4,44.4,30.37,North,355,0.0,1.0,74,0.00,,,0.01,WeatherCatV1.23B16,2013-11-07 23:18:00,
2013-11-07 17:23:00,52.0,44.0,30.37,North,355,0.0,0.0,74,0.00,,,0.01,WeatherCatV1.23B16,2013-11-07 23:23:00,
2013-11-07 17:28:00,51.7,44.4,30.37,North,355,1.0,1.0,76,0.00,,,0.01,WeatherCatV1.23B16,2013-11-07 23:28:00,
2013-11-07 17:33:00,51.2,44.6,30.37,North,355,0.0,0.0,78,0.00,,,0.01,WeatherCatV1.23B16,2013-11-07 23:33:00,
2013-11-07 17:38:00,50.8,44.5,30.37,North,355,0.0,0.0,79,0.00,,,0.01,WeatherCatV1.23B16,2013-11-07 23:38:00,
2013-11-07 17:43:00,50.4,44.1,30.38,North,355,0.0,0.0,79,0.00,,,0.01,WeatherCatV1.23B16,2013-11-07 23:43:00,
2013-11-07 17:48:00,50.1,44.2,30.38,North,355,0.0,0.0,80,0.00,,,0.01,WeatherCatV1.23B16,2013-11-07 23:48:00,
2013-11-07 17:53:00,49.8,44.2,30.38,North,355,0.0,0.0,81,0.00,,,0.01,WeatherCatV1.23B16,2013-11-07 23:53:00,
2013-11-07 17:58:00,49.4,44.1,30.38,North,355,0.0,0.0,82,0.00,,,0.01,WeatherCatV1.23B16,2013-11-07 23:58:00,
2013-11-07 18:03:00,49.1,44.2,30.38,North,355,1.0,1.0,83,0.00,,,0.01,WeatherCatV1.23B16,2013-11-08 00:03:00,
2013-11-07 18:08:00,48.8,44.2,30.38,North,355,2.0,2.0,84,0.00,,,0.01,WeatherCatV1.23B16,2013-11-08 00:08:00,
2013-11-07 18:13:00,48.5,44.2,30.38,North,355,1.0,1.0,85,0.00,,,0.01,WeatherCatV1.23B16,2013-11-08 00:13:00,
2013-11-07 18:18:00,48.3,44.0,30.38,North,355,0.0,0.0,85,0.00,,,0.01,WeatherCatV1.23B16,2013-11-08 00:18:00,
2013-11-07 18:23:00,48.1,43.8,30.38,North,355,0.0,0.0,85,0.00,,,0.01,WeatherCatV1.23B16,2013-11-08 00:23:00,
2013-11-07 18:28:00,47.9,43.9,30.38,North,355,0.0,0.0,86,0.00,,,0.01,WeatherCatV1.23B16,2013-11-08 00:28:00,
2013-11-07 18:33:00,47.7,44.0,30.38,North,355,2.0,2.0,87,0.00,,,0.01,WeatherCatV1.23B16,2013-11-08 00:33:00,
2013-11-07 18:38:00,47.4,44.0,30.39,North,355,1.0,2.0,88,0.00,,,0.01,WeatherCatV1.23B16,2013-11-08 00:38:00,
2013-11-07 18:43:00,47.1,43.7,30.39,North,355,0.0,1.0,88,0.00,,,0.01,WeatherCatV1.23B16,2013-11-08 00:43:00,
2013-11-07 18:48:00,46.9,43.5,30.39,North,355,0.0,0.0,88,0.00,,,0.01,WeatherCatV1.23B16,2013-11-08 00:48:00,
2013-11-07 18:53:00,46.7,43.3,30.39,North,355,0.0,0.0,88,0.00,,,0.01,WeatherCatV1.23B16,2013-11-08 00:53:00,
2013-11-07 18:58:00,46.5,43.1,30.39,North,355,0.0,0.0,88,0.00,,,0.01,WeatherCatV1.23B16,2013-11-08 00:58:00,
2013-11-07 19:03:00,46.4,43.3,30.39,North,355,0.0,1.0,89,0.00,,,0.01,WeatherCatV1.23B16,2013-11-08 01:03:00,
2013-11-07 19:08:00,46.2,43.1,30.39,North,355,1.0,2.0,89,0.00,,,0.01,WeatherCatV1.23B16,2013-11-08 01:08:00,
2013-11-07 19:13:00,46.1,42.8,30.39,North,355,0.0,1.0,88,0.00,,,0.01,WeatherCatV1.23B16,2013-11-08 01:13:00,
2013-11-07 19:18:00,46.1,42.5,30.39,North,355,0.0,0.0,87,0.00,,,0.01,WeatherCatV1.23B16,2013-11-08 01:18:00,
2013-11-07 19:23:00,46.3,42.3,30.39,North,355,0.0,0.0,86,0.00,,,0.01,WeatherCatV1.23B16,2013-11-08 01:23:00,
2013-11-07 19:28:00,46.4,42.4,30.38,North,355,2.0,2.0,86,0.00,,,0.01,WeatherCatV1.23B16,2013-11-08 01:28:00,
2013-11-07 19:33:00,46.5,42.5,30.38,North,355,1.0,2.0,86,0.00,,,0.01,WeatherCatV1.23B16,2013-11-08 01:33:00,
2013-11-07 19:38:00,46.4,42.7,30.38,North,355,0.0,0.0,87,0.00,,,0.01,WeatherCatV1.23B16,2013-11-08 01:38:00,
2013-11-07 19:43:00,46.2,42.5,30.39,North,355,0.0,0.0,87,0.00,,,0.01,WeatherCatV1.23B16,2013-11-08 01:43:00,
2013-11-07 19:48:00,46.0,42.7,30.39,North,355,1.0,1.0,88,0.00,,,0.01,WeatherCatV1.23B16,2013-11-08 01:48:00,
2013-11-07 19:53:00,45.7,42.3,30.38,North,355,1.0,2.0,88,0.00,,,0.01,WeatherCatV1.23B16,2013-11-08 01:53:00,
2013-11-07 19:58:00,45.5,42.2,30.38,North,355,0.0,0.0,88,0.00,,,0.01,WeatherCatV1.23B16,2013-11-08 01:58:00,
2013-11-07 20:03:00,45.3,42.2,30.39,North,355,0.0,0.0,89,0.00,,,0.01,WeatherCatV1.23B16,2013-11-08 02:03:00,
2013-11-07 20:08:00,45.1,42.0,30.38,North,355,1.0,2.0,89,0.00,,,0.01,WeatherCatV1.23B16,2013-11-08 02:08:00,
2013-11-07 20:13:00,45.0,42.0,30.38,North,355,1.0,2.0,89,0.00,,,0.01,WeatherCatV1.23B16,2013-11-08 02:13:00,
2013-11-07 20:18:00,44.9,41.9,30.38,North,355,1.0,2.0,89,0.00,,,0.01,WeatherCatV1.23B16,2013-11-08 02:18:00,
2013-11-07 20:23:00,44.7,41.7,30.39,North,355,2.0,3.0,89,0.00,,,0.01,WeatherCatV1.23B16,2013-11-08 02:23:00,
2013-11-07 20:28:00,44.6,41.6,30.39,North,355,1.0,2.0,89,0.00,,,0.01,WeatherCatV1.23B16,2013-11-08 02:28:00,
2013-11-07 20:33:00,44.6,41.8,30.39,North,355,1.0,2.0,90,0.00,,,0.01,WeatherCatV1.23B16,2013-11-08 02:33:00,
2013-11-07 20:38:00,44.6,41.8,30.39,North,355,0.0,1.0,90,0.00,,,0.01,WeatherCatV1.23B16,2013-11-08 02:38:00,
2013-11-07 20:43:00,44.6,41.8,30.39,North,355,0.0,0.0,90,0.00,,,0.01,WeatherCatV1.23B16,2013-11-08 02:43:00,
2013-11-07 20:48:00,44.5,41.8,30.40,North,355,0.0,0.0,90,0.00,,,0.01,WeatherCatV1.23B16,2013-11-08 02:48:00,
2013-11-07 20:53:00,44.4,41.7,30.40,North,355,1.0,1.0,90,0.00,,,0.01,WeatherCatV1.23B16,2013-11-08 02:53:00,
2013-11-07 20:58:00,44.4,41.7,30.40,North,355,0.0,0.0,90,0.00,,,0.01,WeatherCatV1.23B16,2013-11-08 02:58:00,
2013-11-07 21:03:00,44.5,41.8,30.40,North,355,0.0,0.0,90,0.00,,,0.01,WeatherCatV1.23B16,2013-11-08 03:03:00,
2013-11-07 21:08:00,44.4,41.7,30.40,North,355,0.0,0.0,90,0.00,,,0.01,WeatherCatV1.23B16,2013-11-08 03:08:00,
2013-11-07 21:13:00,44.3,41.5,30.39,North,355,0.0,0.0,90,0.00,,,0.01,WeatherCatV1.23B16,2013-11-08 03:13:00,
2013-11-07 21:18:00,44.3,41.5,30.40,North,355,0.0,0.0,90,0.00,,,0.01,WeatherCatV1.23B16,2013-11-08 03:18:00,
2013-11-07 21:23:00,44.2,41.5,30.40,North,355,0.0,0.0,90,0.00,,,0.01,WeatherCatV1.23B16,2013-11-08 03:23:00,
2013-11-07 21:28:00,44.1,41.4,30.39,North,355,0.0,0.0,90,0.00,,,0.01,WeatherCatV1.23B16,2013-11-08 03:28:00,
2013-11-07 21:33:00,44.0,41.5,30.40,North,355,0.0,0.0,91,0.00,,,0.01,WeatherCatV1.23B16,2013-11-08 03:33:00,
2013-11-07 21:38:00,43.9,41.4,30.39,North,355,0.0,0.0,91,0.00,,,0.01,WeatherCatV1.23B16,2013-11-08 03:38:00,
2013-11-07 21:43:00,43.8,41.3,30.40,North,355,1.0,1.0,91,0.00,,,0.01,WeatherCatV1.23B16,2013-11-08 03:43:00,
2013-11-07 21:48:00,43.7,41.2,30.40,North,355,1.0,2.0,91,0.00,,,0.01,WeatherCatV1.23B16,2013-11-08 03:48:00,
2013-11-07 21:53:00,43.6,41.2,30.40,North,355,1.0,1.0,91,0.00,,,0.01,WeatherCatV1.23B16,2013-11-08 03:53:00,
2013-11-07 21:58:00,43.5,41.0,30.40,North,355,0.0,1.0,91,0.00,,,0.01,WeatherCatV1.23B16,2013-11-08 03:58:00,
2013-11-07 22:03:00,43.4,41.0,30.39,North,355,0.0,2.0,91,0.00,,,0.01,WeatherCatV1.23B16,2013-11-08 04:03:00,
2013-11-07 22:09:00,43.3,40.8,30.39,North,355,0.0,0.0,91,0.00,,,0.01,WeatherCatV1.23B16,2013-11-08 04:09:00,
2013-11-07 22:13:00,43.3,40.8,30.39,North,355,0.0,0.0,91,0.00,,,0.01,WeatherCatV1.23B16,2013-11-08 04:13:00,
2013-11-07 22:18:00,43.2,41.0,30.39,North,355,0.0,1.0,92,0.00,,,0.01,WeatherCatV1.23B16,2013-11-08 04:18:00,
2013-11-07 22:23:00,43.3,41.1,30.39,North,355,0.0,1.0,92,0.00,,,0.01,WeatherCatV1.23B16,2013-11-08 04:23:00,
2013-11-07 22:29:00,43.3,41.1,30.39,North,355,0.0,0.0,92,0.00,,,0.01,WeatherCatV1.23B16,2013-11-08 04:29:00,
2013-11-07 22:34:00,43.3,41.1,30.39,North,355,0.0,0.0,92,0.00,,,0.01,WeatherCatV1.23B16,2013-11-08 04:34:00,
2013-11-07 22:39:00,43.2,41.0,30.39,North,355,0.0,0.0,92,0.00,,,0.01,WeatherCatV1.23B16,2013-11-08 04:39:00,
2013-11-07 22:44:00,43.1,40.9,30.39,North,355,0.0,0.0,92,0.00,,,0.01,WeatherCatV1.23B16,2013-11-08 04:44:00,
2013-11-07 22:49:00,43.1,40.9,30.38,North,355,0.0,0.0,92,0.00,,,0.01,WeatherCatV1.23B16,2013-11-08 04:49:00,
2013-11-07 22:54:00,43.1,40.9,30.38,North,355,0.0,0.0,92,0.00,,,0.01,WeatherCatV1.23B16,2013-11-08 04:54:00,
2013-11-07 22:59:00,43.1,40.9,30.38,North,355,0.0,0.0,92,0.00,,,0.01,WeatherCatV1.23B16,2013-11-08 04:59:00,
2013-11-07 23:01:00,43.1,40.9,30.38,North,355,0.0,0.0,92,0.00,,,0.01,WeatherCatV1.23B16,2013-11-08 05:01:00,
2013-11-07 23:06:00,43.0,40.8,30.38,North,355,0.0,0.0,92,0.00,,,0.01,WeatherCatV1.23B16,2013-11-08 05:06:00,
2013-11-07 23:11:00,42.9,40.7,30.38,North,355,0.0,0.0,92,0.00,,,0.01,WeatherCatV1.23B16,2013-11-08 05:11:00,
2013-11-07 23:16:00,42.8,40.6,30.38,North,355,0.0,0.0,92,0.00,,,0.01,WeatherCatV1.23B16,2013-11-08 05:16:00,
2013-11-07 23:21:00,42.7,40.5,30.38,North,355,0.0,0.0,92,0.00,,,0.01,WeatherCatV1.23B16,2013-11-08 05:21:00,
2013-11-07 23:26:00,42.5,40.3,30.38,North,355,0.0,0.0,92,0.00,,,0.01,WeatherCatV1.23B16,2013-11-08 05:26:00,
2013-11-07 23:31:00,42.4,40.2,30.38,North,355,0.0,0.0,92,0.00,,,0.01,WeatherCatV1.23B16,2013-11-08 05:31:00,
2013-11-07 23:36:00,42.4,40.2,30.38,North,355,0.0,0.0,92,0.00,,,0.01,WeatherCatV1.23B16,2013-11-08 05:36:00,
2013-11-07 23:41:00,42.3,40.1,30.37,North,355,0.0,0.0,92,0.00,,,0.01,WeatherCatV1.23B16,2013-11-08 05:41:00,
2013-11-07 23:46:00,42.2,40.0,30.37,North,355,0.0,0.0,92,0.00,,,0.01,WeatherCatV1.23B16,2013-11-08 05:46:00,
2013-11-07 23:51:00,42.1,40.2,30.37,North,355,0.0,0.0,93,0.00,,,0.01,WeatherCatV1.23B16,2013-11-08 05:51:00,
2013-11-07 23:56:00,42.0,40.1,30.37,North,355,0.0,0.0,93,0.00,,,0.01,WeatherCatV1.23B16,2013-11-08 05:56:00,